createdAt,value
2022-12-25T00:02:18.368Z,97144.28
2022-12-25T00:04:45.105Z,97147.81
2022-12-25T00:07:11.818Z,97146.97
2022-12-25T00:09:38.582Z,97147.16
2022-12-25T00:12:05.330Z,97136.63
2022-12-25T00:14:32.007Z,97131.72
2022-12-25T00:16:58.733Z,97136.06
2022-12-25T00:19:25.616Z,97131.06
2022-12-25T00:21:52.360Z,97132.75
2022-12-25T00:24:19.027Z,97124.72
2022-12-25T00:26:45.684Z,97126.91
2022-12-25T00:29:12.558Z,97124.91
2022-12-25T00:31:39.260Z,97122.03
2022-12-25T00:34:05.925Z,97126.25
2022-12-25T00:36:36.350Z,97122.22
2022-12-25T00:39:07.926Z,97121.41
2022-12-25T00:41:34.595Z,97119.91
2022-12-25T00:44:01.222Z,97108.53
2022-12-25T00:46:27.970Z,97105.72
2022-12-25T00:48:54.641Z,97101.69
2022-12-25T00:51:21.339Z,97098.03
2022-12-25T00:53:47.979Z,97085.81
2022-12-25T00:56:14.625Z,97085.81
2022-12-25T00:58:41.282Z,97083.50
2022-12-25T01:01:08.774Z,97088.00
2022-12-25T01:03:35.424Z,97090.84
2022-12-25T01:06:03.963Z,97092.34
2022-12-25T01:08:32.114Z,97089.84
2022-12-25T01:11:00.599Z,97093.84
2022-12-25T01:13:27.772Z,97093.16
2022-12-25T01:15:54.609Z,97085.16
2022-12-25T01:18:22.173Z,97081.16
2022-12-25T01:20:48.871Z,97072.63
2022-12-25T01:23:15.588Z,97074.63
2022-12-25T01:25:42.253Z,97075.66
2022-12-25T01:28:08.897Z,97074.63
2022-12-25T01:30:35.609Z,97073.59
2022-12-25T01:33:02.288Z,97068.09
2022-12-25T01:35:28.965Z,97080.09
2022-12-25T01:37:55.628Z,97083.78
2022-12-25T01:40:22.289Z,97098.63
2022-12-25T01:42:48.930Z,97102.13
2022-12-25T01:45:38.760Z,97095.81
2022-12-25T01:48:08.030Z,97103.31
2022-12-25T01:50:34.882Z,97108.31
2022-12-25T01:53:01.533Z,97106.50
2022-12-25T01:55:28.178Z,97111.00
2022-12-25T01:57:54.860Z,97104.81
2022-12-25T02:00:21.489Z,97106.50
2022-12-25T02:02:48.196Z,97104.31
2022-12-25T02:05:22.841Z,97113.03
2022-12-25T02:07:49.549Z,97111.69
2022-12-25T02:10:16.372Z,97103.19
2022-12-25T02:12:42.999Z,97107.81
2022-12-25T02:15:13.488Z,97099.47
2022-12-25T02:18:05.032Z,97107.66
2022-12-25T02:20:47.254Z,97110.81
2022-12-25T02:23:16.626Z,97116.19
2022-12-25T02:26:01.405Z,97111.38
2022-12-25T02:28:28.247Z,97103.50
2022-12-25T02:31:25.637Z,97100.69
2022-12-25T02:34:21.586Z,97089.81
2022-12-25T02:37:16.612Z,97097.16
2022-12-25T02:40:07.914Z,97090.13
2022-12-25T02:42:55.855Z,97089.78
2022-12-25T02:45:40.617Z,97080.09
2022-12-25T02:48:07.297Z,97072.75
2022-12-25T02:50:33.939Z,97076.78
2022-12-25T02:53:00.631Z,97080.59
2022-12-25T02:55:30.489Z,97071.25
2022-12-25T02:57:58.030Z,97072.72
2022-12-25T03:00:24.645Z,97074.88
2022-12-25T03:02:51.656Z,97064.84
2022-12-25T03:05:20.622Z,97057.06
2022-12-25T03:07:47.297Z,97068.72
2022-12-25T03:10:14.052Z,97063.38
2022-12-25T03:12:52.307Z,97061.84
2022-12-25T03:15:19.368Z,97059.84
2022-12-25T03:17:46.046Z,97067.00
2022-12-25T03:20:12.688Z,97059.50
2022-12-25T03:22:39.339Z,97061.34
2022-12-25T03:25:06.434Z,97053.16
2022-12-25T03:27:33.532Z,97051.34
2022-12-25T03:30:00.215Z,97043.31
2022-12-25T03:33:17.993Z,97030.69
2022-12-25T03:36:16.618Z,97029.97
2022-12-25T03:39:05.900Z,97027.31
2022-12-25T03:41:43.399Z,97015.50
2022-12-25T03:44:25.213Z,97014.81
2022-12-25T03:46:55.369Z,97008.31
2022-12-25T03:49:26.564Z,97008.78
2022-12-25T03:51:53.540Z,97002.75
2022-12-25T03:54:21.187Z,96993.41
2022-12-25T03:56:47.821Z,96987.53
2022-12-25T03:59:23.210Z,96985.88
2022-12-25T04:01:51.032Z,96988.69
2022-12-25T04:04:17.723Z,96985.38
2022-12-25T04:06:44.741Z,96979.38
2022-12-25T04:09:11.384Z,96972.66
2022-12-25T04:11:38.020Z,96978.72
2022-12-25T04:14:04.693Z,96988.00
2022-12-25T04:16:31.342Z,96994.19
2022-12-25T04:18:57.972Z,97000.50
2022-12-25T04:21:24.615Z,96992.84
2022-12-25T04:23:51.237Z,96992.47
2022-12-25T04:26:17.884Z,96994.31
2022-12-25T04:28:44.565Z,96998.34
2022-12-25T04:31:11.271Z,96991.81
2022-12-25T04:33:37.969Z,97001.00
2022-12-25T04:36:04.813Z,96993.31
2022-12-25T04:38:31.486Z,96993.88
2022-12-25T04:40:58.767Z,97000.72
2022-12-25T04:43:25.519Z,97002.97
2022-12-25T04:45:53.806Z,96998.47
2022-12-25T04:48:20.552Z,97000.00
2022-12-25T04:50:47.232Z,96988.47
2022-12-25T04:53:13.924Z,97002.50
2022-12-25T04:55:40.569Z,97003.66
2022-12-25T04:58:07.211Z,97001.31
2022-12-25T05:00:33.843Z,97002.31
2022-12-25T05:03:00.738Z,96999.97
2022-12-25T05:05:27.511Z,97003.50
2022-12-25T05:07:54.170Z,97011.03
2022-12-25T05:10:20.818Z,97008.03
2022-12-25T05:12:47.466Z,96994.31
2022-12-25T05:15:14.123Z,96980.47
2022-12-25T05:17:40.762Z,96983.81
2022-12-25T05:20:07.751Z,96965.28
2022-12-25T05:22:34.410Z,96971.78
2022-12-25T05:25:01.082Z,96964.94
2022-12-25T05:27:27.749Z,96971.78
2022-12-25T05:29:54.366Z,96974.94
2022-12-25T05:32:21.003Z,96974.78
2022-12-25T05:34:47.633Z,96977.44
2022-12-25T05:37:14.283Z,96976.28
2022-12-25T05:39:40.915Z,96972.56
2022-12-25T05:42:07.600Z,96972.72
2022-12-25T05:44:34.223Z,96979.03
2022-12-25T05:47:01.056Z,96984.19
2022-12-25T05:49:27.731Z,96992.19
2022-12-25T05:51:55.511Z,96983.84
2022-12-25T05:54:22.177Z,96981.81
2022-12-25T05:56:48.789Z,96980.16
2022-12-25T05:59:15.414Z,96978.47
2022-12-25T06:01:42.208Z,96983.47
2022-12-25T06:04:12.708Z,96982.81
2022-12-25T06:06:40.088Z,96989.28
2022-12-25T06:09:06.777Z,96978.31
2022-12-25T06:11:33.435Z,96989.81
2022-12-25T06:14:00.131Z,96988.28
2022-12-25T06:16:26.841Z,96995.59
2022-12-25T06:18:53.536Z,97007.28
2022-12-25T06:21:20.189Z,97001.06
2022-12-25T06:23:46.980Z,97002.72
2022-12-25T06:26:15.333Z,96994.56
2022-12-25T06:28:41.987Z,96990.03
2022-12-25T06:31:14.003Z,97000.41
2022-12-25T06:33:40.713Z,96997.72
2022-12-25T06:36:09.006Z,96995.69
2022-12-25T06:38:36.143Z,96995.69
2022-12-25T06:41:04.880Z,97000.22
2022-12-25T06:43:31.512Z,96997.56
2022-12-25T06:46:02.471Z,97002.66
2022-12-25T06:48:29.152Z,97013.16
2022-12-25T06:50:55.781Z,97010.84
2022-12-25T06:53:22.465Z,97014.34
2022-12-25T06:55:49.123Z,97018.50
2022-12-25T06:58:15.776Z,97017.00
2022-12-25T07:00:42.452Z,97019.00
2022-12-25T07:03:09.189Z,97021.00
2022-12-25T07:05:35.925Z,97021.06
2022-12-25T07:08:02.579Z,97024.22
2022-12-25T07:10:29.264Z,97022.31
2022-12-25T07:12:55.921Z,97029.00
2022-12-25T07:15:22.585Z,97014.50
2022-12-25T07:17:49.232Z,97018.84
2022-12-25T07:20:16.079Z,97022.63
2022-12-25T07:22:42.827Z,97021.28
2022-12-25T07:25:09.518Z,97017.63
2022-12-25T07:27:36.299Z,97016.28
2022-12-25T07:30:02.951Z,97022.06
2022-12-25T07:32:32.497Z,97023.22
2022-12-25T07:34:59.147Z,97029.91
2022-12-25T07:37:25.808Z,97028.28
2022-12-25T07:39:52.480Z,97027.44
2022-12-25T07:42:24.796Z,97034.28
2022-12-25T07:44:51.942Z,97045.66
2022-12-25T07:47:18.580Z,97059.66
2022-12-25T07:49:45.217Z,97055.16
2022-12-25T07:52:11.855Z,97054.78
2022-12-25T07:54:38.512Z,97052.25
2022-12-25T07:57:05.182Z,97060.81
2022-12-25T07:59:31.851Z,97062.50
2022-12-25T08:01:58.780Z,97075.03
2022-12-25T08:04:25.576Z,97067.72
2022-12-25T08:06:52.213Z,97076.38
2022-12-25T08:09:18.958Z,97084.59
2022-12-25T08:11:45.956Z,97078.00
2022-12-25T08:14:12.617Z,97080.44
2022-12-25T08:16:39.353Z,97080.88
2022-12-25T08:19:05.972Z,97075.41
2022-12-25T08:21:33.674Z,97082.94
2022-12-25T08:24:00.337Z,97079.09
2022-12-25T08:26:27.072Z,97093.66
2022-12-25T08:28:53.715Z,97092.81
2022-12-25T08:31:22.333Z,97097.03
2022-12-25T08:33:49.536Z,97085.13
2022-12-25T08:36:16.232Z,97080.75
2022-12-25T08:38:42.920Z,97080.59
2022-12-25T08:41:10.193Z,97081.47
2022-12-25T08:43:36.846Z,97081.47
2022-12-25T08:46:04.429Z,97078.44
2022-12-25T08:48:31.253Z,97075.97
2022-12-25T08:50:58.425Z,97076.63
2022-12-25T08:53:25.177Z,97075.50
2022-12-25T08:56:01.542Z,97077.47
2022-12-25T08:58:28.253Z,97079.78
2022-12-25T09:00:54.974Z,97076.28
2022-12-25T09:03:22.172Z,97087.44
2022-12-25T09:05:49.163Z,97080.06
2022-12-25T09:08:16.863Z,97086.84
2022-12-25T09:10:44.563Z,97086.13
2022-12-25T09:13:11.223Z,97082.38
2022-12-25T09:15:38.630Z,97080.22
2022-12-25T09:18:05.681Z,97070.66
2022-12-25T09:20:32.397Z,97081.13
2022-12-25T09:23:08.525Z,97081.91
2022-12-25T09:25:38.441Z,97086.72
2022-12-25T09:28:05.109Z,97092.31
2022-12-25T09:30:31.765Z,97081.13
2022-12-25T09:32:58.479Z,97091.34
2022-12-25T09:35:25.200Z,97086.47
2022-12-25T09:37:51.801Z,97086.59
2022-12-25T09:40:19.276Z,97093.44
2022-12-25T09:42:45.908Z,97091.59
2022-12-25T09:45:15.439Z,97091.69
2022-12-25T09:47:42.421Z,97099.19
2022-12-25T09:50:44.552Z,97088.03
2022-12-25T09:53:15.954Z,97083.88
2022-12-25T09:56:08.490Z,97083.53
2022-12-25T09:58:35.117Z,97084.63
2022-12-25T10:01:07.912Z,97081.13
2022-12-25T10:03:43.762Z,97073.91
2022-12-25T10:06:36.314Z,97073.91
2022-12-25T10:09:08.508Z,97080.66
2022-12-25T10:11:50.313Z,97073.06
2022-12-25T10:15:05.234Z,97075.56
2022-12-25T10:18:15.255Z,97064.84
2022-12-25T10:20:54.641Z,97059.06
2022-12-25T10:23:27.173Z,97058.16
2022-12-25T10:25:53.948Z,97059.28
2022-12-25T10:28:28.383Z,97064.16
2022-12-25T10:30:55.782Z,97058.53
2022-12-25T10:33:22.631Z,97058.53
2022-12-25T10:35:49.290Z,97062.59
2022-12-25T10:38:17.627Z,97080.19
2022-12-25T10:41:13.438Z,97063.72
2022-12-25T10:43:50.390Z,97066.03
2022-12-25T10:46:17.155Z,97069.75
2022-12-25T10:48:54.522Z,97067.31
2022-12-25T10:51:32.840Z,97051.78
2022-12-25T10:53:59.589Z,97038.66
2022-12-25T10:56:26.253Z,97044.47
2022-12-25T10:59:04.614Z,97033.56
2022-12-25T11:01:31.328Z,97040.78
2022-12-25T11:03:58.067Z,97050.69
2022-12-25T11:06:26.616Z,97035.31
2022-12-25T11:08:54.866Z,97022.47
2022-12-25T11:11:21.637Z,97010.13
2022-12-25T11:13:49.833Z,97004.41
2022-12-25T11:16:32.972Z,97006.91
2022-12-25T11:18:59.759Z,97000.22
2022-12-25T11:21:30.509Z,96995.16
2022-12-25T11:24:03.584Z,96979.94
2022-12-25T11:26:50.458Z,96984.59
2022-12-25T11:29:25.962Z,96980.31
2022-12-25T11:31:52.719Z,96983.19
2022-12-25T11:34:34.455Z,96968.50
2022-12-25T11:37:01.401Z,96991.06
2022-12-25T11:39:46.230Z,97000.72
2022-12-25T11:42:37.737Z,97019.41
2022-12-25T11:45:07.759Z,97022.19
2022-12-25T11:47:37.453Z,97029.84
2022-12-25T11:50:27.465Z,97020.69
2022-12-25T11:52:54.142Z,97024.88
2022-12-25T11:55:44.597Z,97025.13
2022-12-25T11:58:20.716Z,97011.44
2022-12-25T12:00:47.937Z,97023.38
2022-12-25T12:03:18.374Z,97034.50
2022-12-25T12:05:50.821Z,97017.44
2022-12-25T12:08:17.634Z,97019.84
2022-12-25T12:11:08.670Z,97011.34
2022-12-25T12:13:40.435Z,97026.31
2022-12-25T12:16:07.119Z,97024.94
2022-12-25T12:18:33.912Z,97034.94
2022-12-25T12:21:21.280Z,97013.09
2022-12-25T12:23:52.270Z,97034.94
2022-12-25T12:26:26.132Z,97020.97
2022-12-25T12:28:54.450Z,97019.84
2022-12-25T12:31:21.104Z,97028.09
2022-12-25T12:33:49.329Z,97003.19
2022-12-25T12:36:16.006Z,97041.41
2022-12-25T12:38:43.464Z,97022.44
2022-12-25T12:41:10.191Z,97024.47
2022-12-25T12:43:56.983Z,97048.56
2022-12-25T12:46:30.584Z,97039.84
2022-12-25T12:49:24.000Z,97050.59
2022-12-25T12:51:50.898Z,97026.44
2022-12-25T12:54:22.814Z,97029.84
2022-12-25T12:57:02.416Z,97026.72
2022-12-25T12:59:34.779Z,97026.78
2022-12-25T13:02:14.735Z,97023.34
2022-12-25T13:04:52.224Z,97035.13
2022-12-25T13:07:34.763Z,97012.16
2022-12-25T13:10:24.855Z,97043.44
2022-12-25T13:12:53.532Z,97036.31
2022-12-25T13:15:20.212Z,97018.81
2022-12-25T13:17:46.928Z,97021.13
2022-12-25T13:20:24.897Z,97014.44
2022-12-25T13:22:53.037Z,97027.34
2022-12-25T13:25:21.398Z,97010.25
2022-12-25T13:27:54.966Z,97020.66
2022-12-25T13:30:22.056Z,97014.34
2022-12-25T13:32:48.707Z,97011.56
2022-12-25T13:35:15.632Z,97006.41
2022-12-25T13:37:42.460Z,97009.28
2022-12-25T13:40:23.184Z,97009.03
2022-12-25T13:42:50.694Z,97010.94
2022-12-25T13:45:24.813Z,97010.50
2022-12-25T13:47:55.207Z,97025.97
2022-12-25T13:50:25.405Z,97023.44
2022-12-25T13:52:52.331Z,97022.06
2022-12-25T13:55:21.980Z,97020.66
2022-12-25T13:57:56.169Z,97017.06
2022-12-25T14:00:28.146Z,97022.88
2022-12-25T14:02:54.958Z,97015.13
2022-12-25T14:05:32.402Z,97034.19
2022-12-25T14:08:12.602Z,97022.06
2022-12-25T14:10:48.961Z,97027.53
2022-12-25T14:13:15.618Z,97018.28
2022-12-25T14:15:42.292Z,97019.94
2022-12-25T14:18:18.871Z,97001.25
2022-12-25T14:21:05.496Z,97025.28
2022-12-25T14:23:46.145Z,97028.22
2022-12-25T14:26:22.639Z,97019.22
2022-12-25T14:28:51.275Z,97048.34
2022-12-25T14:31:18.143Z,97030.56
2022-12-25T14:33:44.825Z,97028.84
2022-12-25T14:36:12.031Z,97037.00
2022-12-25T14:38:38.691Z,97045.09
2022-12-25T14:41:26.298Z,97015.13
2022-12-25T14:43:54.019Z,97043.69
2022-12-25T14:46:28.301Z,97027.16
2022-12-25T14:49:24.139Z,97022.59
2022-12-25T14:51:51.065Z,97025.78
2022-12-25T14:54:19.695Z,97028.84
2022-12-25T14:56:51.532Z,97015.19
2022-12-25T14:59:20.718Z,97020.06
2022-12-25T15:01:58.861Z,97017.75
2022-12-25T15:04:25.631Z,97019.53
2022-12-25T15:07:02.954Z,97023.69
2022-12-25T15:09:29.747Z,97007.50
2022-12-25T15:11:56.411Z,97016.56
2022-12-25T15:14:23.668Z,97019.00
2022-12-25T15:17:00.312Z,96999.00
2022-12-25T15:19:34.755Z,97006.31
2022-12-25T15:22:03.863Z,97001.50
2022-12-25T15:24:30.514Z,96983.91
2022-12-25T15:26:57.141Z,96987.44
2022-12-25T15:29:52.106Z,96988.88
2022-12-25T15:32:22.243Z,96990.94
2022-12-25T15:34:49.121Z,96985.16
2022-12-25T15:37:16.444Z,96981.69
2022-12-25T15:39:43.184Z,96989.75
2022-12-25T15:42:13.812Z,96989.78
2022-12-25T15:44:40.748Z,96990.31
2022-12-25T15:47:09.573Z,97005.19
2022-12-25T15:49:36.309Z,97000.19
2022-12-25T15:52:02.940Z,96990.31
2022-12-25T15:54:30.478Z,96991.94
2022-12-25T15:56:58.223Z,96991.25
2022-12-25T15:59:24.882Z,97005.16
2022-12-25T16:01:56.170Z,96999.88
2022-12-25T16:04:25.020Z,96984.69
2022-12-25T16:06:52.045Z,96999.44
2022-12-25T16:09:19.019Z,96996.22
2022-12-25T16:11:45.678Z,97001.28
2022-12-25T16:14:12.567Z,96998.28
2022-12-25T16:16:39.340Z,96993.09
2022-12-25T16:19:06.203Z,96996.47
2022-12-25T16:21:43.786Z,96991.31
2022-12-25T16:24:10.505Z,97007.66
2022-12-25T16:26:37.161Z,97001.66
2022-12-25T16:29:07.320Z,97005.00
2022-12-25T16:31:36.639Z,96989.47
2022-12-25T16:34:03.849Z,96997.63
2022-12-25T16:36:32.025Z,96992.97
2022-12-25T16:38:58.684Z,96994.63
2022-12-25T16:41:25.621Z,97004.50
2022-12-25T16:43:54.314Z,97008.53
2022-12-25T16:46:26.368Z,97002.00
2022-12-25T16:48:54.704Z,97017.84
2022-12-25T16:51:25.471Z,97025.22
2022-12-25T16:53:55.995Z,97013.03
2022-12-25T16:56:27.051Z,97020.38
2022-12-25T16:58:54.828Z,97026.56
2022-12-25T17:01:24.163Z,97025.91
2022-12-25T17:03:54.433Z,97038.72
2022-12-25T17:06:30.541Z,97034.91
2022-12-25T17:09:11.577Z,97048.25
2022-12-25T17:11:38.472Z,97072.63
2022-12-25T17:14:40.719Z,97058.25
2022-12-25T17:22:42.837Z,97100.81
2022-12-25T17:25:11.006Z,97101.97
2022-12-25T17:27:50.920Z,97109.28
2022-12-25T17:30:24.645Z,97106.78
2022-12-25T17:32:52.000Z,97094.25
2022-12-25T17:35:19.003Z,97082.09
2022-12-25T17:40:46.381Z,97076.59
2022-12-25T17:45:53.524Z,97049.19
2022-12-25T17:48:20.193Z,97043.81
2022-12-25T17:50:48.598Z,97053.28
2022-12-25T17:53:23.162Z,97038.75
2022-12-25T17:55:56.554Z,97043.44
2022-12-25T17:58:23.394Z,97041.66
2022-12-25T18:00:50.357Z,97032.00
2022-12-25T18:03:17.542Z,97031.81
2022-12-25T18:06:04.934Z,97048.75
2022-12-25T18:11:14.065Z,97054.38
2022-12-25T18:14:04.582Z,97040.00
2022-12-25T18:19:16.855Z,97051.91
2022-12-25T18:22:06.134Z,97043.03
2022-12-25T18:24:33.102Z,97056.19
2022-12-25T18:27:04.132Z,97064.06
2022-12-25T18:29:51.227Z,97068.19
2022-12-25T18:37:41.980Z,97061.69
2022-12-25T18:40:14.441Z,97072.81
2022-12-25T18:45:32.649Z,97049.78
2022-12-25T18:47:59.354Z,97061.81
2022-12-25T18:50:26.694Z,97044.47
2022-12-25T18:52:57.276Z,97057.16
2022-12-25T18:55:26.336Z,97063.91
2022-12-25T18:58:16.045Z,97058.19
2022-12-25T19:00:46.057Z,97071.97
2022-12-25T19:03:15.449Z,97084.53
2022-12-25T19:05:49.833Z,97077.69
2022-12-25T19:08:16.895Z,97077.53
2022-12-25T19:10:44.207Z,97070.81
2022-12-25T19:13:11.035Z,97070.81
2022-12-25T19:15:41.935Z,97072.47
2022-12-25T19:18:08.652Z,97070.47
2022-12-25T19:20:38.665Z,97067.28
2022-12-25T19:23:05.357Z,97067.44
2022-12-25T19:25:32.038Z,97066.25
2022-12-25T19:27:58.708Z,97074.59
2022-12-25T19:30:25.381Z,97070.31
2022-12-25T19:32:52.456Z,97067.53
2022-12-25T19:35:20.055Z,97067.88
2022-12-25T19:37:47.689Z,97067.03
2022-12-25T19:40:15.283Z,97077.88
2022-12-25T19:42:42.884Z,97076.03
2022-12-25T19:45:10.467Z,97078.47
2022-12-25T19:47:38.056Z,97068.09
2022-12-25T19:50:05.060Z,97070.81
2022-12-25T19:52:31.737Z,97072.88
2022-12-25T19:54:58.389Z,97073.13
2022-12-25T19:57:25.050Z,97093.34
2022-12-25T19:59:51.739Z,97092.75
2022-12-25T20:02:18.511Z,97095.59
2022-12-25T20:04:45.280Z,97087.75
2022-12-25T20:07:12.854Z,97088.47
2022-12-25T20:09:39.521Z,97082.69
2022-12-25T20:12:06.223Z,97096.53
2022-12-25T20:14:32.850Z,97108.63
2022-12-25T20:16:59.601Z,97115.03
2022-12-25T20:19:26.293Z,97134.06
2022-12-25T20:21:54.060Z,97134.13
2022-12-25T20:24:20.739Z,97145.19
2022-12-25T20:26:48.269Z,97146.13
2022-12-25T20:29:15.810Z,97157.09
2022-12-25T20:31:42.503Z,97156.31
2022-12-25T20:34:09.333Z,97168.94
2022-12-25T20:36:37.758Z,97171.09
2022-12-25T20:39:06.176Z,97174.22
2022-12-25T20:41:32.885Z,97182.59
2022-12-25T20:43:59.996Z,97189.06
2022-12-25T20:46:26.931Z,97188.38
2022-12-25T20:48:53.662Z,97185.25
2022-12-25T20:51:22.272Z,97183.66
2022-12-25T20:53:48.937Z,97194.16
2022-12-25T20:56:16.940Z,97196.06
2022-12-25T20:58:43.673Z,97185.63
2022-12-25T21:01:12.186Z,97198.69
2022-12-25T21:03:39.005Z,97200.09
2022-12-25T21:06:06.748Z,97192.84
2022-12-25T21:08:34.462Z,97196.78
2022-12-25T21:11:01.170Z,97204.50
2022-12-25T21:13:29.643Z,97196.56
2022-12-25T21:15:57.483Z,97199.63
2022-12-25T21:18:26.064Z,97202.38
2022-12-25T21:20:57.711Z,97195.00
2022-12-25T21:23:25.313Z,97206.72
2022-12-25T21:25:52.015Z,97218.56
2022-12-25T21:28:20.929Z,97222.53
2022-12-25T21:30:48.183Z,97226.25
2022-12-25T21:33:17.290Z,97223.19
2022-12-25T21:35:45.308Z,97218.72
2022-12-25T21:38:12.899Z,97227.00
2022-12-25T21:40:40.488Z,97224.94
2022-12-25T21:43:07.146Z,97238.28
2022-12-25T21:45:34.209Z,97238.16
2022-12-25T21:48:03.535Z,97245.69
2022-12-25T21:50:37.462Z,97246.09
2022-12-25T21:53:05.926Z,97247.31
2022-12-25T21:55:32.571Z,97242.91
2022-12-25T21:57:59.212Z,97243.75
2022-12-25T22:00:25.871Z,97244.63
2022-12-25T22:02:52.604Z,97259.84
2022-12-25T22:05:19.341Z,97258.94
2022-12-25T22:07:45.971Z,97252.03
2022-12-25T22:10:12.613Z,97253.19
2022-12-25T22:12:39.304Z,97252.44
2022-12-25T22:15:07.259Z,97265.63
2022-12-25T22:17:34.704Z,97261.50
2022-12-25T22:20:01.339Z,97259.97
2022-12-25T22:22:29.257Z,97265.16
2022-12-25T22:24:58.048Z,97274.16
2022-12-25T22:27:24.852Z,97279.91
2022-12-25T22:29:51.569Z,97287.38
2022-12-25T22:32:18.249Z,97278.84
2022-12-25T22:34:44.933Z,97285.31
2022-12-25T22:37:15.089Z,97287.00
2022-12-25T22:39:41.739Z,97294.25
2022-12-25T22:42:08.462Z,97288.94
2022-12-25T22:44:35.148Z,97283.88
2022-12-25T22:47:01.907Z,97296.59
2022-12-25T22:49:28.649Z,97302.00
2022-12-25T22:51:55.298Z,97303.97
2022-12-25T22:54:22.227Z,97295.81
2022-12-25T22:56:50.194Z,97304.38
2022-12-25T22:59:17.703Z,97304.47
2022-12-25T23:01:44.567Z,97295.19
2022-12-25T23:04:11.645Z,97301.25
2022-12-25T23:06:38.904Z,97306.06
2022-12-25T23:09:06.093Z,97314.88
2022-12-25T23:11:32.758Z,97315.41
2022-12-25T23:13:59.407Z,97308.25
2022-12-25T23:16:26.166Z,97312.00
2022-12-25T23:18:52.984Z,97310.19
2022-12-25T23:21:19.619Z,97309.97
2022-12-25T23:23:46.279Z,97311.19
2022-12-25T23:26:15.565Z,97303.41
2022-12-25T23:28:42.809Z,97310.28
2022-12-25T23:31:09.552Z,97314.81
2022-12-25T23:33:36.269Z,97313.16
2022-12-25T23:36:03.004Z,97321.56
2022-12-25T23:38:29.692Z,97311.91
2022-12-25T23:40:56.317Z,97313.22
2022-12-25T23:43:22.960Z,97312.47
2022-12-25T23:45:49.635Z,97315.66
2022-12-25T23:48:16.311Z,97324.75
2022-12-25T23:50:42.975Z,97319.25
2022-12-25T23:53:10.547Z,97333.63
2022-12-25T23:55:37.249Z,97332.34
2022-12-25T23:58:04.005Z,97338.66
